Time;durP1;ratioP1;P1;durP2;ratioP2;P2;SDS_P1;SDS_P2;PMS_P1;PMS_P2;Temp;Humidity;BMP_temperature;BMP_pressure;BME280_temperature;BME280_humidity;BME280_pressure;Samples;Min_cycle;Max_cycle;Signal;HPM_P1;HPM_P2
2023/10/28 00:00:58;;;;;;;25.85;14.20;;;10.00;99.90;;;;;;4996478;28;20234;-87
2023/10/28 00:03:25;;;;;;;23.08;14.02;;;10.00;99.90;;;;;;4996398;28;20211;-88
2023/10/28 00:05:51;;;;;;;34.45;15.90;;;9.90;99.90;;;;;;5000143;28;20570;-88
2023/10/28 00:08:17;;;;;;;26.25;15.45;;;10.00;99.90;;;;;;4992924;28;20619;-87
2023/10/28 00:10:44;;;;;;;25.48;14.30;;;9.90;99.90;;;;;;4996196;28;20191;-87
2023/10/28 00:13:12;;;;;;;23.92;14.07;;;10.00;99.90;;;;;;4996555;28;20191;-87
2023/10/28 00:15:39;;;;;;;25.58;13.95;;;10.00;99.90;;;;;;4996168;28;20238;-88
2023/10/28 00:18:05;;;;;;;22.48;13.38;;;10.00;99.90;;;;;;4996083;28;20194;-88
2023/10/28 00:20:32;;;;;;;23.55;14.45;;;10.00;99.90;;;;;;4986210;28;20694;-88
2023/10/28 00:22:59;;;;;;;21.85;13.65;;;10.10;99.90;;;;;;4976652;28;20223;-88
2023/10/28 00:25:34;;;;;;;27.50;14.93;;;10.10;99.90;;;;;;4984491;28;20191;-88
2023/10/28 00:28:00;;;;;;;26.08;14.63;;;10.10;99.90;;;;;;4984277;28;20567;-88
2023/10/28 00:30:26;;;;;;;25.42;15.68;;;10.10;99.90;;;;;;4994666;28;20180;-88
2023/10/28 00:32:52;;;;;;;25.45;15.75;;;10.10;99.90;;;;;;4984196;28;20726;-88
2023/10/28 00:35:19;;;;;;;25.40;15.95;;;10.00;99.90;;;;;;4984788;28;20280;-86
2023/10/28 00:37:45;;;;;;;25.50;14.73;;;10.10;99.90;;;;;;4984738;28;20188;-88
2023/10/28 00:40:11;;;;;;;26.40;15.23;;;10.10;99.90;;;;;;4985375;28;20215;-87
2023/10/28 00:42:38;;;;;;;26.77;15.55;;;10.00;99.90;;;;;;4995082;28;20204;-88
2023/10/28 00:45:05;;;;;;;27.92;14.40;;;10.00;99.90;;;;;;4995663;28;20188;-88
2023/10/28 00:47:35;;;;;;;31.20;15.50;;;10.10;99.90;;;;;;4995077;28;20180;-87
2023/10/28 00:50:06;;;;;;;28.80;15.82;;;10.00;99.90;;;;;;4982724;28;20196;-86
2023/10/28 00:52:33;;;;;;;30.63;15.95;;;10.10;99.90;;;;;;4977815;28;20199;-89
2023/10/28 00:54:58;;;;;;;32.38;16.15;;;10.00;99.90;;;;;;4995338;28;20198;-88
2023/10/28 00:57:26;;;;;;;31.83;16.50;;;10.00;99.90;;;;;;4980633;28;20188;-87
2023/10/28 00:59:54;;;;;;;28.35;15.45;;;10.00;99.90;;;;;;4994568;28;20179;-87
2023/10/28 01:02:19;;;;;;;30.90;15.95;;;10.00;99.90;;;;;;4994671;28;20306;-87
2023/10/28 01:04:46;;;;;;;36.15;16.02;;;10.00;99.90;;;;;;4994681;28;20567;-87
2023/10/28 01:07:12;;;;;;;29.70;15.60;;;10.00;99.90;;;;;;4985123;28;20215;-87
2023/10/28 01:09:47;;;;;;;28.33;15.00;;;10.00;99.90;;;;;;4983685;28;20187;-87
2023/10/28 01:12:14;;;;;;;30.20;14.68;;;10.00;99.90;;;;;;4995281;28;20194;-87
2023/10/28 01:14:41;;;;;;;28.98;14.45;;;10.00;99.90;;;;;;4992337;28;20188;-87
2023/10/28 01:17:13;;;;;;;26.98;14.32;;;10.00;99.90;;;;;;4991091;28;20266;-88
2023/10/28 01:19:39;;;;;;;25.45;13.85;;;10.00;99.90;;;;;;4996075;28;20191;-87
2023/10/28 01:22:05;;;;;;;24.38;13.23;;;10.00;99.90;;;;;;4995086;28;20198;-88
2023/10/28 01:24:32;;;;;;;25.00;14.05;;;10.00;99.90;;;;;;5453989;23;20673;-81
2023/10/28 01:27:01;;;;;;;24.58;13.40;;;10.10;99.90;;;;;;5023233;28;20179;-86
2023/10/28 01:29:28;;;;;;;24.23;12.75;;;10.10;99.90;;;;;;5013905;28;20180;-83
2023/10/28 01:31:54;;;;;;;21.98;12.57;;;10.10;99.90;;;;;;5014713;28;20186;-81
2023/10/28 01:34:22;;;;;;;23.25;12.60;;;10.10;99.90;;;;;;5014963;28;20263;-83
2023/10/28 01:36:49;;;;;;;26.02;13.18;;;10.10;99.90;;;;;;5017909;28;20186;-93
2023/10/28 01:39:18;;;;;;;23.23;12.43;;;10.10;99.90;;;;;;5018690;28;20177;-94
2023/10/28 01:41:43;;;;;;;24.85;13.05;;;10.10;99.90;;;;;;5015286;28;20186;-93
2023/10/28 01:44:09;;;;;;;21.30;11.93;;;10.10;99.90;;;;;;5014847;28;20214;-90
2023/10/28 01:46:35;;;;;;;24.95;13.40;;;10.10;99.90;;;;;;5012814;28;20167;-81
2023/10/28 01:49:00;;;;;;;26.92;13.63;;;10.10;99.90;;;;;;5019997;28;20193;-82
2023/10/28 01:51:26;;;;;;;21.75;12.73;;;10.10;99.90;;;;;;5016865;28;20522;-87
2023/10/28 01:53:52;;;;;;;23.52;12.70;;;10.10;99.90;;;;;;5028222;28;20182;-79
2023/10/28 01:56:18;;;;;;;23.15;12.60;;;10.10;99.90;;;;;;5014497;28;20187;-84
2023/10/28 01:58:44;;;;;;;23.63;13.00;;;10.10;99.90;;;;;;5006662;28;20211;-79
2023/10/28 02:01:09;;;;;;;23.85;12.68;;;10.10;99.90;;;;;;5014606;28;20183;-80
2023/10/28 02:03:35;;;;;;;29.45;13.50;;;10.10;99.90;;;;;;5029454;28;20214;-78
2023/10/28 02:06:01;;;;;;;23.65;12.68;;;10.10;99.90;;;;;;5014477;28;20183;-83
2023/10/28 02:08:27;;;;;;;22.90;13.18;;;10.20;99.90;;;;;;5014601;28;20227;-84
2023/10/28 02:10:52;;;;;;;23.17;12.90;;;10.10;99.90;;;;;;5013082;28;20179;-85
2023/10/28 02:13:18;;;;;;;23.05;12.68;;;10.10;99.90;;;;;;5013766;28;20266;-81
2023/10/28 02:15:51;;;;;;;23.52;12.93;;;10.10;99.90;;;;;;5006515;28;20183;-80
2023/10/28 02:18:18;;;;;;;23.23;11.63;;;10.10;99.90;;;;;;5015619;28;20191;-79
2023/10/28 02:20:44;;;;;;;19.55;11.32;;;10.10;99.90;;;;;;5018719;28;20183;-82
2023/10/28 02:23:13;;;;;;;23.20;13.00;;;10.10;99.90;;;;;;5018514;28;20206;-82
2023/10/28 02:25:42;;;;;;;23.92;13.13;;;10.10;99.90;;;;;;5017857;28;20231;-81
2023/10/28 02:28:12;;;;;;;21.30;12.65;;;10.10;99.90;;;;;;5018231;28;20187;-88
2023/10/28 02:30:41;;;;;;;21.77;12.98;;;10.10;99.90;;;;;;5018157;28;20217;-81
2023/10/28 02:33:07;;;;;;;23.35;12.77;;;10.10;99.90;;;;;;5018346;28;20237;-80
2023/10/28 02:35:36;;;;;;;20.45;12.65;;;10.10;99.90;;;;;;5018194;28;20175;-84
2023/10/28 02:38:02;;;;;;;22.55;11.98;;;10.10;99.90;;;;;;5016777;28;20183;-81
2023/10/28 02:40:28;;;;;;;20.77;12.15;;;10.10;99.90;;;;;;5016552;28;20183;-88
2023/10/28 02:42:53;;;;;;;20.23;12.20;;;10.10;99.90;;;;;;5018033;28;20202;-85
2023/10/28 02:45:19;;;;;;;18.55;11.93;;;10.10;99.90;;;;;;5017759;28;20179;-81
2023/10/28 02:47:45;;;;;;;19.77;11.52;;;10.10;99.90;;;;;;5017935;28;20625;-81
2023/10/28 02:50:12;;;;;;;20.23;12.15;;;10.10;99.90;;;;;;5017964;28;20183;-80
2023/10/28 02:52:38;;;;;;;21.17;12.25;;;10.10;99.90;;;;;;5016688;28;20273;-86
2023/10/28 02:55:05;;;;;;;20.20;12.27;;;10.10;99.90;;;;;;5027315;28;20270;-84
2023/10/28 02:57:32;;;;;;;23.35;12.95;;;10.10;99.90;;;;;;5016398;28;20187;-80
2023/10/28 02:59:57;;;;;;;21.67;12.40;;;10.10;99.90;;;;;;5021962;28;20214;-80
2023/10/28 03:02:23;;;;;;;22.60;12.43;;;10.10;99.90;;;;;;5020328;28;20253;-85
2023/10/28 03:04:49;;;;;;;20.67;12.80;;;10.10;99.90;;;;;;5017887;28;20194;-81
2023/10/28 03:07:15;;;;;;;22.42;13.73;;;10.10;99.90;;;;;;5016333;28;20648;-81
2023/10/28 03:09:40;;;;;;;21.55;12.18;;;10.10;99.90;;;;;;5025490;28;20190;-80
2023/10/28 03:12:06;;;;;;;22.90;12.23;;;10.10;99.90;;;;;;5017532;28;20195;-80
2023/10/28 03:14:32;;;;;;;22.63;12.82;;;10.10;99.90;;;;;;5016190;28;20184;-80
2023/10/28 03:16:59;;;;;;;20.35;12.05;;;10.10;99.90;;;;;;5017425;28;20664;-85
2023/10/28 03:19:24;;;;;;;21.98;12.45;;;10.10;99.90;;;;;;5017410;28;20263;-82
2023/10/28 03:21:50;;;;;;;22.75;13.23;;;10.10;99.90;;;;;;5017411;28;20266;-81
2023/10/28 03:24:16;;;;;;;18.77;11.75;;;10.10;99.90;;;;;;5016753;28;20235;-81
2023/10/28 03:26:42;;;;;;;19.05;11.98;;;10.10;99.90;;;;;;5016024;28;20641;-80
2023/10/28 03:29:07;;;;;;;22.88;13.02;;;10.10;99.90;;;;;;5015095;28;20225;-82
2023/10/28 03:31:33;;;;;;;25.77;13.60;;;10.10;99.90;;;;;;5017024;28;20175;-90
2023/10/28 03:33:59;;;;;;;21.58;12.27;;;10.10;99.90;;;;;;5017164;28;20254;-82
2023/10/28 03:36:25;;;;;;;19.60;12.27;;;10.00;99.90;;;;;;5017072;28;20183;-81
2023/10/28 03:38:51;;;;;;;21.67;13.55;;;10.10;99.90;;;;;;5013385;28;20183;-79
2023/10/28 03:41:16;;;;;;;18.10;11.60;;;10.10;99.90;;;;;;5012510;28;20503;-92
2023/10/28 03:43:42;;;;;;;20.90;12.68;;;10.00;99.90;;;;;;5015836;28;20218;-92
2023/10/28 03:46:16;;;;;;;20.55;12.77;;;10.10;99.90;;;;;;5017387;28;20194;-90
2023/10/28 03:48:42;;;;;;;19.73;12.30;;;10.00;99.90;;;;;;5016099;28;20241;-92
2023/10/28 03:51:08;;;;;;;19.83;12.40;;;10.00;99.90;;;;;;5016028;28;20187;-93
2023/10/28 03:53:33;;;;;;;21.25;12.85;;;10.00;99.90;;;;;;5015998;28;20234;-93
2023/10/28 03:55:59;;;;;;;22.58;13.88;;;9.90;99.90;;;;;;5015606;28;20183;-92
2023/10/28 03:58:36;;;;;;;22.95;13.48;;;9.90;99.90;;;;;;5017201;28;20175;-89
2023/10/28 04:01:02;;;;;;;24.73;12.48;;;9.80;99.90;;;;;;5017185;28;20510;-93
2023/10/28 04:03:27;;;;;;;19.15;12.05;;;9.80;99.90;;;;;;5016918;28;20207;-93
2023/10/28 04:05:56;;;;;;;20.65;12.68;;;9.80;99.90;;;;;;5015716;28;20187;-88
2023/10/28 04:08:24;;;;;;;20.95;13.43;;;9.80;99.90;;;;;;5032253;28;20191;-92
2023/10/28 04:10:49;;;;;;;20.92;13.85;;;9.80;99.90;;;;;;5016856;28;20175;-91
2023/10/28 04:13:15;;;;;;;22.50;13.63;;;9.70;99.90;;;;;;5015981;28;20236;-92
2023/10/28 04:15:41;;;;;;;20.10;11.70;;;9.70;99.90;;;;;;5016731;28;20183;-87
2023/10/28 04:18:12;;;;;;;18.15;10.75;;;9.70;99.90;;;;;;5016813;28;20553;-90
2023/10/28 04:20:39;;;;;;;16.33;11.18;;;9.70;99.90;;;;;;5016930;28;20273;-89
2023/10/28 04:23:05;;;;;;;25.67;11.80;;;9.80;99.90;;;;;;5015588;28;20215;-80
2023/10/28 04:25:31;;;;;;;17.42;11.15;;;9.70;99.90;;;;;;5014800;28;20566;-80
2023/10/28 04:27:58;;;;;;;16.63;11.02;;;9.70;99.90;;;;;;5016496;28;20186;-90
2023/10/28 04:30:24;;;;;;;18.77;12.15;;;9.70;99.90;;;;;;5016704;28;20183;-91
2023/10/28 04:32:52;;;;;;;17.50;11.65;;;9.70;99.90;;;;;;5015273;28;20191;-88
2023/10/28 04:35:18;;;;;;;18.85;12.18;;;9.70;99.90;;;;;;5015193;28;20211;-87
2023/10/28 04:37:45;;;;;;;20.98;12.70;;;9.70;99.90;;;;;;5016354;28;20241;-91
2023/10/28 04:40:11;;;;;;;23.00;13.65;;;9.80;99.90;;;;;;5003231;28;20207;-89
2023/10/28 04:42:37;;;;;;;24.40;13.40;;;9.70;99.90;;;;;;5014540;28;20230;-91
2023/10/28 04:45:06;;;;;;;21.42;12.90;;;9.70;99.90;;;;;;5015021;28;20261;-90
2023/10/28 04:47:32;;;;;;;21.88;13.55;;;9.70;99.90;;;;;;5009307;28;20180;-83
2023/10/28 04:50:00;;;;;;;21.58;12.05;;;9.80;99.90;;;;;;5012835;28;20278;-91
2023/10/28 04:52:26;;;;;;;18.92;12.05;;;9.70;99.90;;;;;;5008865;28;20179;-85
2023/10/28 04:54:53;;;;;;;18.35;11.77;;;9.70;99.90;;;;;;5015177;28;20181;-92
2023/10/28 04:57:20;;;;;;;20.42;12.27;;;9.80;99.90;;;;;;5010761;28;20202;-89
2023/10/28 04:59:46;;;;;;;36.30;19.75;;;9.80;99.90;;;;;;5019804;28;20172;-89
2023/10/28 05:02:11;;;;;;;117.03;52.20;;;9.80;99.90;;;;;;5016743;28;20185;-93
2023/10/28 05:04:37;;;;;;;61.30;31.48;;;9.70;99.90;;;;;;5014453;28;20221;-86
2023/10/28 05:07:04;;;;;;;51.38;27.02;;;9.80;99.90;;;;;;5012424;28;20186;-86
2023/10/28 05:09:30;;;;;;;37.45;20.13;;;9.70;99.90;;;;;;5012341;28;20210;-92
2023/10/28 05:11:56;;;;;;;28.33;16.15;;;9.70;99.90;;;;;;5003435;28;20168;-93
2023/10/28 05:14:23;;;;;;;34.83;18.38;;;9.70;99.90;;;;;;5014966;28;20179;-93
2023/10/28 05:16:50;;;;;;;36.60;19.80;;;9.70;99.90;;;;;;5014435;28;20183;-85
2023/10/28 05:19:15;;;;;;;43.72;22.30;;;9.70;99.90;;;;;;5014427;28;20179;-84
2023/10/28 05:21:42;;;;;;;32.28;18.13;;;9.70;99.90;;;;;;5005701;28;20183;-81
2023/10/28 05:24:09;;;;;;;29.60;15.75;;;9.60;99.90;;;;;;5010534;28;20486;-82
2023/10/28 05:26:34;;;;;;;26.17;14.88;;;9.70;99.90;;;;;;5011381;28;20182;-82
2023/10/28 05:29:00;;;;;;;21.67;13.18;;;9.70;99.90;;;;;;5005124;28;20179;-81
2023/10/28 05:31:26;;;;;;;19.98;12.50;;;9.70;99.90;;;;;;5011390;28;20298;-81
2023/10/28 05:33:51;;;;;;;22.90;12.98;;;9.70;99.90;;;;;;5012653;28;20633;-81
2023/10/28 05:36:17;;;;;;;22.13;13.15;;;9.70;99.90;;;;;;5012114;28;20249;-84
2023/10/28 05:38:43;;;;;;;24.98;13.30;;;9.80;99.90;;;;;;5015971;28;20621;-86
2023/10/28 05:41:10;;;;;;;21.30;13.18;;;9.80;99.90;;;;;;5015450;28;20182;-87
2023/10/28 05:43:35;;;;;;;25.75;14.00;;;9.80;99.90;;;;;;5015678;28;20735;-82
2023/10/28 05:46:02;;;;;;;23.92;13.55;;;9.80;99.90;;;;;;5013013;28;20183;-83
2023/10/28 05:48:28;;;;;;;27.02;13.77;;;9.80;99.90;;;;;;5012418;28;20202;-82
2023/10/28 05:50:55;;;;;;;21.65;13.13;;;9.80;99.90;;;;;;5008685;28;21000;-82
2023/10/28 05:53:22;;;;;;;21.27;12.90;;;9.80;99.90;;;;;;5011647;28;20226;-83
2023/10/28 05:55:47;;;;;;;22.85;12.80;;;9.70;99.90;;;;;;5008847;28;20205;-84
2023/10/28 05:58:14;;;;;;;21.70;12.32;;;9.80;99.90;;;;;;5012047;28;20521;-91
2023/10/28 06:00:41;;;;;;;26.88;13.15;;;9.80;99.90;;;;;;5009488;28;20184;-83
2023/10/28 06:03:08;;;;;;;22.42;13.60;;;9.80;99.90;;;;;;5009560;28;20215;-82
2023/10/28 06:05:37;;;;;;;21.52;12.50;;;9.80;99.90;;;;;;5010208;28;20645;-81
2023/10/28 06:08:02;;;;;;;21.67;12.65;;;9.80;99.90;;;;;;5010061;28;20175;-82
2023/10/28 06:10:28;;;;;;;21.75;13.00;;;9.90;99.90;;;;;;5009187;28;20179;-91
2023/10/28 06:12:54;;;;;;;25.83;13.55;;;9.90;99.90;;;;;;5013763;28;20181;-86
2023/10/28 06:15:19;;;;;;;22.58;13.43;;;9.80;99.90;;;;;;5014104;28;20515;-82
2023/10/28 06:17:45;;;;;;;20.33;12.60;;;9.80;99.90;;;;;;5013591;28;20206;-84
2023/10/28 06:20:11;;;;;;;26.33;13.13;;;9.80;99.90;;;;;;5014348;28;20270;-83
2023/10/28 06:22:37;;;;;;;22.02;12.13;;;9.80;99.90;;;;;;5012830;28;20207;-83
2023/10/28 06:25:04;;;;;;;24.00;12.07;;;9.80;99.90;;;;;;5010642;28;20611;-89
2023/10/28 06:27:33;;;;;;;20.75;11.75;;;9.80;99.90;;;;;;5006979;28;20195;-82
2023/10/28 06:30:00;;;;;;;20.05;11.43;;;9.80;99.90;;;;;;5008811;28;20183;-82
2023/10/28 06:32:27;;;;;;;20.30;11.75;;;9.80;99.90;;;;;;5013551;28;20183;-88
2023/10/28 06:34:54;;;;;;;25.00;12.15;;;9.80;99.90;;;;;;5014326;28;20175;-86
2023/10/28 06:37:20;;;;;;;16.85;10.70;;;9.80;99.90;;;;;;5012312;28;20270;-87
2023/10/28 06:39:47;;;;;;;18.23;11.05;;;9.80;99.90;;;;;;5013861;28;20255;-84
2023/10/28 06:42:13;;;;;;;16.33;10.07;;;9.80;99.90;;;;;;5022181;28;20179;-82
2023/10/28 06:44:39;;;;;;;17.75;9.82;;;9.80;99.90;;;;;;5013649;28;20179;-83
2023/10/28 06:47:05;;;;;;;21.85;11.10;;;9.90;99.90;;;;;;5013472;28;20233;-83
2023/10/28 06:49:31;;;;;;;17.65;9.88;;;9.90;99.90;;;;;;5021871;28;20237;-82
2023/10/28 06:51:57;;;;;;;18.63;10.43;;;9.90;99.90;;;;;;5022635;28;20179;-82
2023/10/28 06:54:24;;;;;;;18.73;10.68;;;9.90;99.90;;;;;;5017264;28;20217;-82
2023/10/28 06:56:50;;;;;;;14.90;9.27;;;9.90;99.90;;;;;;5021230;28;20499;-82
2023/10/28 06:59:16;;;;;;;22.30;11.02;;;10.00;99.90;;;;;;5022740;28;20183;-82
2023/10/28 07:01:42;;;;;;;16.55;10.02;;;10.00;99.90;;;;;;5013921;28;20184;-83
2023/10/28 07:04:07;;;;;;;18.63;10.48;;;10.00;99.90;;;;;;5014454;28;20694;-81
2023/10/28 07:06:33;;;;;;;19.80;10.20;;;10.00;99.90;;;;;;5016931;28;20186;-82
2023/10/28 07:08:59;;;;;;;15.70;9.93;;;10.00;99.90;;;;;;5015476;28;20192;-85
2023/10/28 07:11:24;;;;;;;20.38;10.73;;;10.00;99.90;;;;;;5017597;28;20237;-90
2023/10/28 07:13:50;;;;;;;17.95;10.55;;;10.00;99.90;;;;;;5017130;28;20183;-82
2023/10/28 07:16:17;;;;;;;15.48;10.45;;;10.10;99.90;;;;;;5017445;28;20206;-86
2023/10/28 07:18:43;;;;;;;16.75;9.30;;;10.10;99.90;;;;;;5017143;28;20258;-86
2023/10/28 07:21:09;;;;;;;14.07;8.27;;;10.10;99.90;;;;;;5017233;28;20199;-90
2023/10/28 07:23:35;;;;;;;18.50;8.20;;;10.10;99.90;;;;;;5017124;28;20585;-89
2023/10/28 07:26:01;;;;;;;12.18;7.95;;;10.20;99.90;;;;;;5016614;28;20231;-82
2023/10/28 07:28:33;;;;;;;12.18;6.90;;;10.20;99.90;;;;;;5016220;28;20179;-82
2023/10/28 07:31:00;;;;;;;10.40;6.55;;;10.20;99.90;;;;;;5015536;28;20622;-87
2023/10/28 07:33:26;;;;;;;10.15;5.95;;;10.20;99.90;;;;;;5015478;28;20190;-85
2023/10/28 07:35:52;;;;;;;10.85;6.63;;;10.30;99.90;;;;;;5016487;28;20179;-84
2023/10/28 07:38:18;;;;;;;9.73;5.70;;;10.20;99.90;;;;;;5017247;28;20186;-82
2023/10/28 07:40:45;;;;;;;8.90;6.03;;;10.30;99.90;;;;;;5031991;28;20187;-88
2023/10/28 07:43:11;;;;;;;13.40;6.25;;;10.30;99.90;;;;;;5009507;28;20210;-81
2023/10/28 07:45:39;;;;;;;13.85;5.47;;;10.20;99.90;;;;;;5018642;28;20172;-81
2023/10/28 07:48:09;;;;;;;11.65;5.90;;;10.20;99.90;;;;;;5013839;28;20176;-81
2023/10/28 07:50:38;;;;;;;16.63;5.70;;;10.30;99.90;;;;;;5012784;28;20190;-81
2023/10/28 07:53:07;;;;;;;9.32;5.07;;;10.30;99.90;;;;;;5011278;28;20246;-85
2023/10/28 07:55:33;;;;;;;10.27;5.10;;;10.30;99.90;;;;;;5012275;28;20261;-82
2023/10/28 07:58:00;;;;;;;10.50;4.68;;;10.30;99.90;;;;;;5013194;28;20650;-85
2023/10/28 08:06:25;;;;;;;8.45;4.88;;;10.30;99.90;;;;;;4991979;23;20214;-79
2023/10/28 08:08:55;;;;;;;10.93;4.65;;;10.30;99.90;;;;;;4961925;28;20212;-83
2023/10/28 08:11:25;;;;;;;10.55;3.85;;;10.40;99.90;;;;;;4984550;28;20947;-80
2023/10/28 08:13:54;;;;;;;9.32;4.35;;;10.40;99.90;;;;;;4973560;28;20187;-82
2023/10/28 08:16:21;;;;;;;9.70;3.92;;;10.40;99.90;;;;;;4957793;28;20631;-82
2023/10/28 08:18:49;;;;;;;12.63;3.15;;;10.40;99.90;;;;;;4961115;28;20220;-82
2023/10/28 08:21:18;;;;;;;8.48;3.35;;;10.50;99.90;;;;;;4955794;28;20247;-89
2023/10/28 08:23:44;;;;;;;5.30;2.80;;;10.50;99.90;;;;;;4955894;28;20726;-91
2023/10/28 08:26:11;;;;;;;7.95;3.08;;;10.50;99.90;;;;;;4950045;28;20647;-79
2023/10/28 08:28:41;;;;;;;11.55;3.33;;;10.50;99.90;;;;;;4959132;28;20189;-82
2023/10/28 08:31:08;;;;;;;6.10;3.10;;;10.50;99.90;;;;;;4973971;28;20191;-80
2023/10/28 08:33:39;;;;;;;7.80;3.28;;;10.60;99.90;;;;;;4966980;28;20200;-88
2023/10/28 08:36:07;;;;;;;13.70;3.40;;;10.60;99.90;;;;;;4961407;28;20215;-80
2023/10/28 08:38:33;;;;;;;6.32;2.70;;;10.70;99.90;;;;;;4975660;28;20208;-79
2023/10/28 08:41:00;;;;;;;4.65;2.70;;;10.70;99.90;;;;;;4969127;28;20177;-83
2023/10/28 08:43:26;;;;;;;5.60;2.95;;;10.70;99.90;;;;;;4964181;28;20213;-80
2023/10/28 08:45:53;;;;;;;4.63;2.67;;;10.70;99.90;;;;;;4963461;28;20213;-84
2023/10/28 08:48:22;;;;;;;5.55;3.10;;;10.70;99.90;;;;;;4966868;28;20537;-92
2023/10/28 08:50:53;;;;;;;6.60;3.15;;;10.70;99.90;;;;;;4975263;28;20252;-89
2023/10/28 08:53:21;;;;;;;5.35;2.65;;;10.70;99.90;;;;;;4970698;28;20281;-90
2023/10/28 08:55:52;;;;;;;6.80;2.80;;;10.70;99.90;;;;;;4960478;28;20196;-81
2023/10/28 08:58:19;;;;;;;6.88;3.08;;;10.70;99.90;;;;;;4960147;28;20276;-82
2023/10/28 09:00:50;;;;;;;10.50;2.70;;;10.70;99.90;;;;;;4953566;28;20269;-83
2023/10/28 09:03:20;;;;;;;9.18;2.75;;;10.80;99.90;;;;;;4961269;28;20652;-81
2023/10/28 09:05:50;;;;;;;4.97;2.72;;;10.80;99.90;;;;;;4965606;28;20173;-83
2023/10/28 09:08:16;;;;;;;7.13;2.83;;;10.90;99.90;;;;;;4974815;28;20286;-86
2023/10/28 09:10:42;;;;;;;6.25;2.92;;;10.90;99.90;;;;;;4987486;28;20183;-81
2023/10/28 09:13:08;;;;;;;7.90;3.33;;;10.90;99.90;;;;;;4982439;28;20187;-81
2023/10/28 09:15:37;;;;;;;7.95;3.33;;;11.00;99.90;;;;;;4991420;28;20188;-86
2023/10/28 09:18:03;;;;;;;6.13;2.95;;;11.00;99.90;;;;;;4995394;28;20184;-86
2023/10/28 09:20:30;;;;;;;5.93;3.10;;;11.00;99.90;;;;;;4980388;28;20252;-91
2023/10/28 09:22:56;;;;;;;5.60;2.60;;;11.00;99.90;;;;;;4985739;28;20207;-80
2023/10/28 09:25:22;;;;;;;5.53;3.00;;;11.00;99.90;;;;;;4995225;28;20202;-80
2023/10/28 09:27:48;;;;;;;8.02;2.85;;;11.00;99.90;;;;;;4994649;28;20180;-80
2023/10/28 09:30:21;;;;;;;6.13;2.83;;;11.00;99.90;;;;;;4994092;28;20187;-80
2023/10/28 09:32:47;;;;;;;5.38;2.92;;;11.00;99.90;;;;;;4993985;28;20192;-82
2023/10/28 09:35:14;;;;;;;6.80;2.78;;;11.00;99.90;;;;;;4987349;28;20217;-86
2023/10/28 09:37:40;;;;;;;6.22;2.92;;;10.90;99.90;;;;;;4988150;28;20184;-81
2023/10/28 09:40:12;;;;;;;5.45;2.92;;;10.90;99.90;;;;;;4995234;28;20187;-83
2023/10/28 09:42:39;;;;;;;6.40;2.75;;;10.90;99.90;;;;;;4987096;28;20557;-80
2023/10/28 09:45:08;;;;;;;8.57;3.00;;;10.90;99.90;;;;;;4994906;28;20183;-82
2023/10/28 09:47:42;;;;;;;7.07;3.05;;;10.90;99.90;;;;;;4994841;28;20208;-84
2023/10/28 09:50:12;;;;;;;9.30;3.28;;;10.80;99.90;;;;;;4995051;28;20219;-83
2023/10/28 09:52:41;;;;;;;6.95;3.42;;;10.80;99.90;;;;;;4993240;28;20184;-80
2023/10/28 09:55:12;;;;;;;6.32;2.88;;;10.80;99.90;;;;;;4994760;28;20615;-80
2023/10/28 09:57:39;;;;;;;7.75;3.17;;;10.90;99.90;;;;;;4994470;28;20631;-82
2023/10/28 10:00:11;;;;;;;4.85;2.80;;;10.90;99.90;;;;;;4993544;28;20187;-82
2023/10/28 10:02:49;;;;;;;5.53;2.65;;;10.90;99.90;;;;;;4994506;28;20208;-81
2023/10/28 10:05:25;;;;;;;5.32;2.53;;;10.90;99.90;;;;;;4994661;28;20261;-81
2023/10/28 10:07:52;;;;;;;4.50;2.47;;;11.00;99.90;;;;;;4982864;28;20258;-81
2023/10/28 10:10:20;;;;;;;4.95;2.47;;;11.10;99.90;;;;;;4989732;28;20187;-81
2023/10/28 10:12:50;;;;;;;3.63;2.17;;;11.20;99.90;;;;;;4994573;28;20188;-82
2023/10/28 10:15:22;;;;;;;2.90;2.20;;;11.30;99.90;;;;;;4986801;28;20195;-81
2023/10/28 10:18:06;;;;;;;2.03;1.70;;;11.30;99.90;;;;;;4979444;28;20207;-81
2023/10/28 10:20:35;;;;;;;6.25;2.40;;;11.40;99.90;;;;;;4993146;28;20633;-80
2023/10/28 10:23:02;;;;;;;4.60;1.83;;;11.40;99.90;;;;;;4994131;28;20215;-80
2023/10/28 10:25:39;;;;;;;2.83;1.70;;;11.50;99.90;;;;;;4993203;28;20183;-81
2023/10/28 10:28:11;;;;;;;3.08;1.60;;;11.50;99.90;;;;;;4994511;28;20183;-81
2023/10/28 10:30:37;;;;;;;3.95;1.77;;;11.50;99.90;;;;;;4994449;28;20188;-81
2023/10/28 10:33:03;;;;;;;3.85;1.95;;;11.50;99.90;;;;;;4994410;28;20291;-81
2023/10/28 10:35:31;;;;;;;5.18;1.90;;;11.60;99.90;;;;;;4994381;28;20211;-80
2023/10/28 10:38:08;;;;;;;4.82;1.90;;;11.70;99.90;;;;;;4986127;28;20191;-81
2023/10/28 10:40:52;;;;;;;5.25;1.73;;;11.80;99.90;;;;;;4998216;28;20191;-81
2023/10/28 10:43:21;;;;;;;4.82;1.40;;;11.90;99.90;;;;;;4996837;28;20298;-81
2023/10/28 10:45:51;;;;;;;3.83;1.42;;;11.90;99.90;;;;;;4982631;28;20182;-81
2023/10/28 10:48:17;;;;;;;2.70;1.50;;;12.00;99.90;;;;;;4997974;28;20230;-80
2023/10/28 10:50:43;;;;;;;3.28;1.58;;;12.00;99.90;;;;;;4997909;28;20618;-81
2023/10/28 10:53:09;;;;;;;5.53;1.63;;;12.10;99.90;;;;;;4996289;28;20271;-80
2023/10/28 10:55:35;;;;;;;2.58;1.40;;;12.10;99.90;;;;;;4997849;28;20287;-81
2023/10/28 10:58:01;;;;;;;4.45;1.65;;;12.10;99.90;;;;;;4997759;28;20180;-80
2023/10/28 11:00:27;;;;;;;3.85;1.30;;;12.10;99.90;;;;;;4996438;28;20526;-81
2023/10/28 11:02:57;;;;;;;3.28;1.23;;;12.10;99.90;;;;;;4997619;28;20212;-81
2023/10/28 11:05:23;;;;;;;3.85;1.50;;;12.10;99.90;;;;;;4997231;28;20271;-81
2023/10/28 11:07:50;;;;;;;4.63;1.88;;;12.10;99.90;;;;;;4982994;28;20588;-81
2023/10/28 11:10:16;;;;;;;2.35;1.83;;;12.20;99.90;;;;;;4997737;28;20191;-81
2023/10/28 11:12:41;;;;;;;2.70;1.50;;;12.30;99.90;;;;;;4997474;28;20416;-83
2023/10/28 11:15:11;;;;;;;3.72;2.08;;;12.30;99.90;;;;;;4997392;28;20191;-82
2023/10/28 11:17:39;;;;;;;4.55;2.30;;;12.30;99.90;;;;;;5012329;28;20187;-81
2023/10/28 11:20:06;;;;;;;4.10;2.03;;;12.60;99.90;;;;;;4996325;28;20199;-81
2023/10/28 11:22:32;;;;;;;4.10;1.95;;;12.70;99.90;;;;;;4995776;28;20211;-81
2023/10/28 11:25:00;;;;;;;3.60;2.10;;;12.70;99.90;;;;;;5012341;28;20188;-81
2023/10/28 11:27:26;;;;;;;6.90;2.40;;;12.60;99.90;;;;;;4995613;28;20188;-79
2023/10/28 11:29:53;;;;;;;5.35;2.28;;;12.70;99.90;;;;;;4995920;28;20192;-81
2023/10/28 11:32:19;;;;;;;4.22;2.47;;;12.80;99.90;;;;;;4995941;28;20271;-81
2023/10/28 11:34:46;;;;;;;5.40;2.88;;;12.90;99.90;;;;;;4997199;28;20676;-82
2023/10/28 11:37:12;;;;;;;3.75;2.17;;;13.10;99.90;;;;;;4991069;28;20650;-81
2023/10/28 11:39:47;;;;;;;3.53;2.20;;;13.20;99.90;;;;;;4996103;28;20183;-82
2023/10/28 11:42:15;;;;;;;3.67;1.77;;;13.30;99.90;;;;;;4996977;28;20179;-81
2023/10/28 11:44:46;;;;;;;3.15;1.70;;;13.30;99.90;;;;;;4995530;28;20203;-83
2023/10/28 11:47:12;;;;;;;3.75;1.88;;;13.10;99.90;;;;;;4996944;28;20509;-84
2023/10/28 11:49:37;;;;;;;4.97;1.55;;;13.00;99.90;;;;;;4995153;28;20245;-82
2023/10/28 11:52:04;;;;;;;5.70;1.92;;;13.00;99.90;;;;;;4996743;28;20188;-84
2023/10/28 11:54:29;;;;;;;4.15;1.90;;;12.90;99.90;;;;;;4996493;28;20235;-86
2023/10/28 11:56:56;;;;;;;3.85;1.88;;;12.90;99.90;;;;;;4996689;28;20614;-83
2023/10/28 11:59:22;;;;;;;4.43;2.03;;;12.80;99.90;;;;;;4995457;28;20566;-82
2023/10/28 12:01:50;;;;;;;5.43;1.92;;;12.80;99.90;;;;;;4996915;28;20191;-83
2023/10/28 12:04:16;;;;;;;2.90;1.88;;;12.70;99.90;;;;;;4995509;28;20215;-85
2023/10/28 12:06:42;;;;;;;5.22;1.92;;;12.70;99.90;;;;;;4994633;28;20275;-84
2023/10/28 12:09:11;;;;;;;7.43;1.75;;;12.70;99.90;;;;;;4990444;28;20192;-84
2023/10/28 12:11:38;;;;;;;4.82;2.05;;;12.70;99.90;;;;;;4995141;28;20199;-83
2023/10/28 12:14:05;;;;;;;3.90;1.88;;;12.80;99.90;;;;;;4996701;28;20666;-83
2023/10/28 12:16:33;;;;;;;5.25;1.90;;;12.80;99.90;;;;;;4996469;28;20180;-83
2023/10/28 12:18:59;;;;;;;3.55;1.75;;;12.70;99.90;;;;;;4996416;28;20693;-86
2023/10/28 12:21:25;;;;;;;2.85;1.80;;;12.70;99.90;;;;;;4995258;28;20187;-82
2023/10/28 12:23:51;;;;;;;2.90;1.80;;;12.60;99.90;;;;;;4996023;28;20239;-82
2023/10/28 12:26:17;;;;;;;2.88;1.65;;;12.60;99.90;;;;;;4996416;28;20179;-83
2023/10/28 12:28:44;;;;;;;4.88;1.90;;;12.50;99.90;;;;;;4995281;28;20224;-83
2023/10/28 12:31:11;;;;;;;2.35;1.55;;;12.50;99.90;;;;;;4996530;28;20199;-83
2023/10/28 12:33:37;;;;;;;4.10;1.48;;;12.40;99.90;;;;;;4993981;28;20179;-84
2023/10/28 12:36:03;;;;;;;5.00;1.38;;;12.40;99.90;;;;;;4990032;28;20180;-84
2023/10/28 12:38:28;;;;;;;3.03;1.55;;;12.40;99.90;;;;;;4987828;28;20180;-84
2023/10/28 12:40:54;;;;;;;3.58;1.10;;;12.30;99.90;;;;;;4996016;28;20176;-80
2023/10/28 12:43:20;;;;;;;1.80;1.10;;;12.30;99.90;;;;;;4995888;28;20657;-83